sensor_id;sensor_type;location;lat;lon;timestamp;P1;durP1;ratioP1;P2;durP2;ratioP2
44348;SDS011;30068;50.986;4.564;2023-01-09T00:00:57;4.10;;;1.70;;
44348;SDS011;30068;50.986;4.564;2023-01-09T00:03:22;4.95;;;1.70;;
44348;SDS011;30068;50.986;4.564;2023-01-09T00:05:48;5.65;;;2.17;;
44348;SDS011;30068;50.986;4.564;2023-01-09T00:08:13;4.43;;;1.95;;
44348;SDS011;30068;50.986;4.564;2023-01-09T00:10:39;4.70;;;2.00;;
44348;SDS011;30068;50.986;4.564;2023-01-09T00:13:04;5.07;;;1.85;;
44348;SDS011;30068;50.986;4.564;2023-01-09T00:15:29;5.72;;;2.13;;
44348;SDS011;30068;50.986;4.564;2023-01-09T00:17:55;5.07;;;1.83;;
44348;SDS011;30068;50.986;4.564;2023-01-09T00:20:20;4.35;;;1.70;;
44348;SDS011;30068;50.986;4.564;2023-01-09T00:22:46;4.60;;;1.90;;
44348;SDS011;30068;50.986;4.564;2023-01-09T00:25:14;5.70;;;1.75;;
44348;SDS011;30068;50.986;4.564;2023-01-09T00:27:39;5.55;;;1.98;;
44348;SDS011;30068;50.986;4.564;2023-01-09T00:30:05;6.00;;;2.00;;
44348;SDS011;30068;50.986;4.564;2023-01-09T00:32:31;3.97;;;1.67;;
44348;SDS011;30068;50.986;4.564;2023-01-09T00:34:56;5.00;;;1.92;;
44348;SDS011;30068;50.986;4.564;2023-01-09T00:37:21;4.85;;;1.80;;
44348;SDS011;30068;50.986;4.564;2023-01-09T00:39:47;4.00;;;1.65;;
44348;SDS011;30068;50.986;4.564;2023-01-09T00:42:13;5.80;;;2.40;;
44348;SDS011;30068;50.986;4.564;2023-01-09T00:44:56;6.70;;;2.45;;
44348;SDS011;30068;50.986;4.564;2023-01-09T00:47:37;6.38;;;2.05;;
44348;SDS011;30068;50.986;4.564;2023-01-09T00:50:08;5.57;;;2.30;;
44348;SDS011;30068;50.986;4.564;2023-01-09T00:52:39;8.68;;;2.60;;
44348;SDS011;30068;50.986;4.564;2023-01-09T00:55:06;6.50;;;2.50;;
44348;SDS011;30068;50.986;4.564;2023-01-09T00:57:32;6.72;;;2.78;;
44348;SDS011;30068;50.986;4.564;2023-01-09T00:59:58;6.82;;;2.38;;
44348;SDS011;30068;50.986;4.564;2023-01-09T01:02:23;5.55;;;2.40;;
44348;SDS011;30068;50.986;4.564;2023-01-09T01:04:49;5.60;;;2.40;;
44348;SDS011;30068;50.986;4.564;2023-01-09T01:07:33;6.20;;;2.42;;
44348;SDS011;30068;50.986;4.564;2023-01-09T01:10:09;7.28;;;2.53;;
44348;SDS011;30068;50.986;4.564;2023-01-09T01:12:40;6.15;;;2.28;;
44348;SDS011;30068;50.986;4.564;2023-01-09T01:15:07;7.75;;;2.40;;
44348;SDS011;30068;50.986;4.564;2023-01-09T01:17:34;6.55;;;2.55;;
44348;SDS011;30068;50.986;4.564;2023-01-09T01:20:01;6.75;;;2.47;;
44348;SDS011;30068;50.986;4.564;2023-01-09T01:22:28;7.07;;;2.38;;
44348;SDS011;30068;50.986;4.564;2023-01-09T01:24:54;5.90;;;2.25;;
44348;SDS011;30068;50.986;4.564;2023-01-09T01:27:19;5.43;;;2.13;;
44348;SDS011;30068;50.986;4.564;2023-01-09T01:29:44;7.43;;;2.40;;
44348;SDS011;30068;50.986;4.564;2023-01-09T01:32:10;6.68;;;2.60;;
44348;SDS011;30068;50.986;4.564;2023-01-09T01:34:35;5.40;;;1.90;;
44348;SDS011;30068;50.986;4.564;2023-01-09T01:37:01;5.60;;;2.20;;
44348;SDS011;30068;50.986;4.564;2023-01-09T01:39:26;4.93;;;2.20;;
44348;SDS011;30068;50.986;4.564;2023-01-09T01:41:51;5.35;;;2.00;;
44348;SDS011;30068;50.986;4.564;2023-01-09T01:47:20;5.82;;;2.00;;
44348;SDS011;30068;50.986;4.564;2023-01-09T01:49:48;7.20;;;2.10;;
44348;SDS011;30068;50.986;4.564;2023-01-09T01:52:14;6.00;;;1.92;;
44348;SDS011;30068;50.986;4.564;2023-01-09T01:54:41;6.13;;;1.90;;
44348;SDS011;30068;50.986;4.564;2023-01-09T01:57:07;5.13;;;1.83;;
44348;SDS011;30068;50.986;4.564;2023-01-09T01:59:36;5.85;;;1.98;;
44348;SDS011;30068;50.986;4.564;2023-01-09T02:02:04;7.55;;;1.70;;
44348;SDS011;30068;50.986;4.564;2023-01-09T02:04:32;5.68;;;1.70;;
44348;SDS011;30068;50.986;4.564;2023-01-09T02:06:59;5.82;;;1.70;;
44348;SDS011;30068;50.986;4.564;2023-01-09T02:09:28;5.72;;;1.70;;
44348;SDS011;30068;50.986;4.564;2023-01-09T02:11:54;5.03;;;1.65;;
44348;SDS011;30068;50.986;4.564;2023-01-09T02:14:22;5.10;;;1.80;;
44348;SDS011;30068;50.986;4.564;2023-01-09T02:17:00;4.72;;;1.70;;
44348;SDS011;30068;50.986;4.564;2023-01-09T02:19:59;5.75;;;1.50;;
44348;SDS011;30068;50.986;4.564;2023-01-09T02:22:33;5.07;;;1.80;;
44348;SDS011;30068;50.986;4.564;2023-01-09T02:25:33;4.13;;;1.58;;
44348;SDS011;30068;50.986;4.564;2023-01-09T02:34:08;3.63;;;1.40;;
44348;SDS011;30068;50.986;4.564;2023-01-09T02:36:46;4.38;;;1.48;;
44348;SDS011;30068;50.986;4.564;2023-01-09T02:41:52;3.72;;;1.50;;
44348;SDS011;30068;50.986;4.564;2023-01-09T02:44:25;5.30;;;1.50;;
44348;SDS011;30068;50.986;4.564;2023-01-09T02:47:06;4.30;;;1.45;;
44348;SDS011;30068;50.986;4.564;2023-01-09T02:49:45;3.55;;;1.23;;
44348;SDS011;30068;50.986;4.564;2023-01-09T02:52:21;4.70;;;1.33;;
44348;SDS011;30068;50.986;4.564;2023-01-09T03:01:11;5.22;;;1.27;;
44348;SDS011;30068;50.986;4.564;2023-01-09T03:03:48;3.22;;;1.00;;
44348;SDS011;30068;50.986;4.564;2023-01-09T03:09:26;5.35;;;1.20;;
44348;SDS011;30068;50.986;4.564;2023-01-09T03:11:57;4.25;;;1.27;;
44348;SDS011;30068;50.986;4.564;2023-01-09T03:14:29;6.68;;;1.40;;
44348;SDS011;30068;50.986;4.564;2023-01-09T03:16:59;3.83;;;1.08;;
44348;SDS011;30068;50.986;4.564;2023-01-09T03:19:29;3.22;;;1.02;;
44348;SDS011;30068;50.986;4.564;2023-01-09T03:21:56;3.35;;;0.90;;
44348;SDS011;30068;50.986;4.564;2023-01-09T03:24:22;4.68;;;0.95;;
44348;SDS011;30068;50.986;4.564;2023-01-09T03:26:47;2.65;;;0.80;;
44348;SDS011;30068;50.986;4.564;2023-01-09T03:29:13;3.80;;;0.90;;
44348;SDS011;30068;50.986;4.564;2023-01-09T03:31:38;4.40;;;1.10;;
44348;SDS011;30068;50.986;4.564;2023-01-09T03:34:03;4.53;;;1.10;;
44348;SDS011;30068;50.986;4.564;2023-01-09T03:36:29;4.90;;;1.23;;
44348;SDS011;30068;50.986;4.564;2023-01-09T03:38:54;3.05;;;0.95;;
44348;SDS011;30068;50.986;4.564;2023-01-09T03:41:20;3.03;;;1.00;;
44348;SDS011;30068;50.986;4.564;2023-01-09T03:43:45;4.38;;;1.00;;
44348;SDS011;30068;50.986;4.564;2023-01-09T03:46:12;3.83;;;0.95;;
44348;SDS011;30068;50.986;4.564;2023-01-09T03:48:38;3.75;;;0.90;;
44348;SDS011;30068;50.986;4.564;2023-01-09T03:51:04;3.72;;;0.85;;
44348;SDS011;30068;50.986;4.564;2023-01-09T03:53:29;2.83;;;0.90;;
44348;SDS011;30068;50.986;4.564;2023-01-09T03:55:55;3.78;;;0.90;;
44348;SDS011;30068;50.986;4.564;2023-01-09T03:58:22;3.78;;;0.80;;
44348;SDS011;30068;50.986;4.564;2023-01-09T04:00:48;3.28;;;0.90;;
44348;SDS011;30068;50.986;4.564;2023-01-09T04:03:15;3.05;;;0.80;;
44348;SDS011;30068;50.986;4.564;2023-01-09T04:05:42;1.83;;;0.80;;
44348;SDS011;30068;50.986;4.564;2023-01-09T04:08:09;2.97;;;0.80;;
44348;SDS011;30068;50.986;4.564;2023-01-09T04:10:34;4.63;;;0.82;;
44348;SDS011;30068;50.986;4.564;2023-01-09T04:13:00;3.42;;;0.90;;
44348;SDS011;30068;50.986;4.564;2023-01-09T04:15:26;4.88;;;0.68;;
44348;SDS011;30068;50.986;4.564;2023-01-09T04:17:51;3.55;;;0.80;;
44348;SDS011;30068;50.986;4.564;2023-01-09T04:20:16;2.33;;;0.80;;
44348;SDS011;30068;50.986;4.564;2023-01-09T04:22:42;3.47;;;0.90;;
44348;SDS011;30068;50.986;4.564;2023-01-09T04:25:08;3.58;;;0.70;;
44348;SDS011;30068;50.986;4.564;2023-01-09T04:27:33;3.55;;;0.70;;
44348;SDS011;30068;50.986;4.564;2023-01-09T04:29:59;4.65;;;0.93;;
44348;SDS011;30068;50.986;4.564;2023-01-09T04:32:24;2.42;;;0.75;;
44348;SDS011;30068;50.986;4.564;2023-01-09T04:34:51;3.10;;;0.75;;
44348;SDS011;30068;50.986;4.564;2023-01-09T04:37:17;3.25;;;0.80;;
44348;SDS011;30068;50.986;4.564;2023-01-09T04:39:42;2.53;;;0.60;;
44348;SDS011;30068;50.986;4.564;2023-01-09T04:42:08;5.35;;;0.88;;
44348;SDS011;30068;50.986;4.564;2023-01-09T04:44:33;4.00;;;0.90;;
44348;SDS011;30068;50.986;4.564;2023-01-09T04:46:59;3.42;;;0.80;;
44348;SDS011;30068;50.986;4.564;2023-01-09T04:49:24;4.03;;;0.90;;
44348;SDS011;30068;50.986;4.564;2023-01-09T04:51:49;4.50;;;1.10;;
44348;SDS011;30068;50.986;4.564;2023-01-09T04:54:15;3.03;;;0.60;;
44348;SDS011;30068;50.986;4.564;2023-01-09T04:56:40;4.43;;;1.05;;
44348;SDS011;30068;50.986;4.564;2023-01-09T04:59:06;3.67;;;0.70;;
44348;SDS011;30068;50.986;4.564;2023-01-09T05:01:32;1.98;;;0.55;;
44348;SDS011;30068;50.986;4.564;2023-01-09T05:03:58;5.20;;;0.80;;
44348;SDS011;30068;50.986;4.564;2023-01-09T05:06:23;4.70;;;1.05;;
44348;SDS011;30068;50.986;4.564;2023-01-09T05:08:49;2.58;;;0.63;;
44348;SDS011;30068;50.986;4.564;2023-01-09T05:11:14;4.40;;;0.68;;
44348;SDS011;30068;50.986;4.564;2023-01-09T05:13:40;3.50;;;0.80;;
44348;SDS011;30068;50.986;4.564;2023-01-09T05:16:05;3.97;;;0.77;;
44348;SDS011;30068;50.986;4.564;2023-01-09T05:18:31;4.50;;;0.80;;
44348;SDS011;30068;50.986;4.564;2023-01-09T05:20:57;4.03;;;0.80;;
44348;SDS011;30068;50.986;4.564;2023-01-09T05:23:22;3.00;;;0.63;;
44348;SDS011;30068;50.986;4.564;2023-01-09T05:25:47;2.28;;;0.52;;
44348;SDS011;30068;50.986;4.564;2023-01-09T05:28:12;4.10;;;0.80;;
44348;SDS011;30068;50.986;4.564;2023-01-09T05:30:38;4.20;;;0.80;;
44348;SDS011;30068;50.986;4.564;2023-01-09T05:33:03;3.17;;;0.65;;
44348;SDS011;30068;50.986;4.564;2023-01-09T05:35:28;3.45;;;0.70;;
44348;SDS011;30068;50.986;4.564;2023-01-09T05:37:54;3.83;;;0.77;;
44348;SDS011;30068;50.986;4.564;2023-01-09T05:40:19;4.20;;;0.73;;
44348;SDS011;30068;50.986;4.564;2023-01-09T05:42:45;4.03;;;1.05;;
44348;SDS011;30068;50.986;4.564;2023-01-09T05:45:10;5.15;;;0.90;;
44348;SDS011;30068;50.986;4.564;2023-01-09T05:47:36;3.45;;;0.75;;
44348;SDS011;30068;50.986;4.564;2023-01-09T05:50:01;4.47;;;0.73;;
44348;SDS011;30068;50.986;4.564;2023-01-09T05:52:28;3.45;;;0.70;;
44348;SDS011;30068;50.986;4.564;2023-01-09T05:54:53;2.72;;;0.68;;
44348;SDS011;30068;50.986;4.564;2023-01-09T05:57:18;4.32;;;0.60;;
44348;SDS011;30068;50.986;4.564;2023-01-09T05:59:44;3.50;;;0.70;;
44348;SDS011;30068;50.986;4.564;2023-01-09T06:02:09;4.32;;;0.70;;
44348;SDS011;30068;50.986;4.564;2023-01-09T06:04:34;3.40;;;0.70;;
44348;SDS011;30068;50.986;4.564;2023-01-09T06:07:00;3.83;;;0.60;;
44348;SDS011;30068;50.986;4.564;2023-01-09T06:09:25;4.55;;;0.70;;
44348;SDS011;30068;50.986;4.564;2023-01-09T06:11:51;6.82;;;0.70;;
44348;SDS011;30068;50.986;4.564;2023-01-09T06:14:18;5.65;;;0.70;;
44348;SDS011;30068;50.986;4.564;2023-01-09T06:16:44;3.85;;;0.90;;
44348;SDS011;30068;50.986;4.564;2023-01-09T06:19:09;2.03;;;0.50;;
44348;SDS011;30068;50.986;4.564;2023-01-09T06:21:34;4.63;;;0.70;;
44348;SDS011;30068;50.986;4.564;2023-01-09T06:24:00;5.35;;;0.70;;
44348;SDS011;30068;50.986;4.564;2023-01-09T06:26:25;2.88;;;0.93;;
44348;SDS011;30068;50.986;4.564;2023-01-09T06:28:50;5.85;;;1.10;;
44348;SDS011;30068;50.986;4.564;2023-01-09T06:31:19;3.47;;;0.70;;
44348;SDS011;30068;50.986;4.564;2023-01-09T06:33:45;3.22;;;0.70;;
44348;SDS011;30068;50.986;4.564;2023-01-09T06:36:10;3.08;;;0.85;;
44348;SDS011;30068;50.986;4.564;2023-01-09T06:38:35;5.32;;;0.80;;
44348;SDS011;30068;50.986;4.564;2023-01-09T06:41:01;3.80;;;0.75;;
44348;SDS011;30068;50.986;4.564;2023-01-09T06:43:26;4.32;;;0.80;;
44348;SDS011;30068;50.986;4.564;2023-01-09T06:45:51;3.50;;;0.82;;
44348;SDS011;30068;50.986;4.564;2023-01-09T06:48:17;4.13;;;0.70;;
44348;SDS011;30068;50.986;4.564;2023-01-09T06:50:42;2.42;;;0.65;;
44348;SDS011;30068;50.986;4.564;2023-01-09T06:53:08;3.95;;;0.60;;
44348;SDS011;30068;50.986;4.564;2023-01-09T06:55:34;3.95;;;0.70;;
44348;SDS011;30068;50.986;4.564;2023-01-09T06:58:00;3.35;;;0.60;;
44348;SDS011;30068;50.986;4.564;2023-01-09T07:00:25;2.35;;;0.65;;
44348;SDS011;30068;50.986;4.564;2023-01-09T07:02:51;2.88;;;0.60;;
44348;SDS011;30068;50.986;4.564;2023-01-09T07:05:16;3.17;;;0.77;;
44348;SDS011;30068;50.986;4.564;2023-01-09T07:07:41;6.07;;;0.98;;
44348;SDS011;30068;50.986;4.564;2023-01-09T07:10:07;3.50;;;0.63;;
44348;SDS011;30068;50.986;4.564;2023-01-09T07:12:34;2.03;;;0.57;;
44348;SDS011;30068;50.986;4.564;2023-01-09T07:14:59;2.10;;;0.60;;
44348;SDS011;30068;50.986;4.564;2023-01-09T07:17:25;5.13;;;0.70;;
44348;SDS011;30068;50.986;4.564;2023-01-09T07:19:50;4.30;;;0.63;;
44348;SDS011;30068;50.986;4.564;2023-01-09T07:22:15;2.20;;;0.50;;
44348;SDS011;30068;50.986;4.564;2023-01-09T07:24:41;3.40;;;0.80;;
44348;SDS011;30068;50.986;4.564;2023-01-09T07:27:08;2.33;;;0.55;;
44348;SDS011;30068;50.986;4.564;2023-01-09T07:29:34;4.30;;;0.57;;
44348;SDS011;30068;50.986;4.564;2023-01-09T07:31:59;2.47;;;0.50;;
44348;SDS011;30068;50.986;4.564;2023-01-09T07:34:24;5.32;;;1.63;;
44348;SDS011;30068;50.986;4.564;2023-01-09T07:36:49;8.88;;;1.10;;
44348;SDS011;30068;50.986;4.564;2023-01-09T07:39:15;4.70;;;1.25;;
44348;SDS011;30068;50.986;4.564;2023-01-09T07:41:40;4.53;;;1.33;;
44348;SDS011;30068;50.986;4.564;2023-01-09T07:44:06;5.93;;;1.45;;
44348;SDS011;30068;50.986;4.564;2023-01-09T07:46:32;3.45;;;0.95;;
44348;SDS011;30068;50.986;4.564;2023-01-09T07:48:58;3.30;;;0.90;;
44348;SDS011;30068;50.986;4.564;2023-01-09T07:51:23;4.88;;;1.35;;
44348;SDS011;30068;50.986;4.564;2023-01-09T07:53:48;3.78;;;1.17;;
44348;SDS011;30068;50.986;4.564;2023-01-09T07:56:14;4.60;;;1.25;;
44348;SDS011;30068;50.986;4.564;2023-01-09T07:58:39;4.22;;;1.20;;
44348;SDS011;30068;50.986;4.564;2023-01-09T08:01:05;4.53;;;1.15;;
44348;SDS011;30068;50.986;4.564;2023-01-09T08:03:30;3.75;;;0.90;;
44348;SDS011;30068;50.986;4.564;2023-01-09T08:05:57;3.30;;;0.93;;
44348;SDS011;30068;50.986;4.564;2023-01-09T08:08:23;3.50;;;1.02;;
44348;SDS011;30068;50.986;4.564;2023-01-09T08:10:48;6.28;;;1.08;;
44348;SDS011;30068;50.986;4.564;2023-01-09T08:13:14;3.53;;;0.93;;
44348;SDS011;30068;50.986;4.564;2023-01-09T08:15:39;3.92;;;0.95;;
44348;SDS011;30068;50.986;4.564;2023-01-09T08:18:04;3.13;;;0.77;;
44348;SDS011;30068;50.986;4.564;2023-01-09T08:20:29;2.70;;;0.70;;
44348;SDS011;30068;50.986;4.564;2023-01-09T08:22:55;5.10;;;1.08;;
44348;SDS011;30068;50.986;4.564;2023-01-09T08:25:20;3.95;;;0.80;;
44348;SDS011;30068;50.986;4.564;2023-01-09T08:27:46;2.80;;;0.70;;
44348;SDS011;30068;50.986;4.564;2023-01-09T08:30:11;3.60;;;0.70;;
44348;SDS011;30068;50.986;4.564;2023-01-09T08:32:37;5.75;;;0.70;;
44348;SDS011;30068;50.986;4.564;2023-01-09T08:35:03;4.35;;;0.75;;
44348;SDS011;30068;50.986;4.564;2023-01-09T08:37:29;3.00;;;0.73;;
44348;SDS011;30068;50.986;4.564;2023-01-09T08:39:54;2.63;;;0.63;;
44348;SDS011;30068;50.986;4.564;2023-01-09T08:42:20;4.32;;;0.90;;
44348;SDS011;30068;50.986;4.564;2023-01-09T08:47:48;2.75;;;0.70;;
44348;SDS011;30068;50.986;4.564;2023-01-09T08:50:14;2.92;;;0.88;;
44348;SDS011;30068;50.986;4.564;2023-01-09T08:52:39;2.83;;;0.70;;
44348;SDS011;30068;50.986;4.564;2023-01-09T08:55:05;2.30;;;0.70;;
44348;SDS011;30068;50.986;4.564;2023-01-09T08:57:30;3.60;;;0.70;;
44348;SDS011;30068;50.986;4.564;2023-01-09T08:59:56;3.78;;;0.70;;
44348;SDS011;30068;50.986;4.564;2023-01-09T09:02:21;4.88;;;0.70;;
44348;SDS011;30068;50.986;4.564;2023-01-09T09:04:48;2.80;;;0.80;;
44348;SDS011;30068;50.986;4.564;2023-01-09T09:07:17;2.72;;;0.68;;
44348;SDS011;30068;50.986;4.564;2023-01-09T09:09:50;4.85;;;0.80;;
44348;SDS011;30068;50.986;4.564;2023-01-09T09:12:16;4.30;;;0.63;;
44348;SDS011;30068;50.986;4.564;2023-01-09T09:14:41;3.33;;;0.60;;
44348;SDS011;30068;50.986;4.564;2023-01-09T09:17:25;4.53;;;0.57;;
44348;SDS011;30068;50.986;4.564;2023-01-09T09:19:52;2.88;;;0.70;;
44348;SDS011;30068;50.986;4.564;2023-01-09T09:22:18;3.33;;;0.63;;
44348;SDS011;30068;50.986;4.564;2023-01-09T09:24:43;4.38;;;0.73;;
44348;SDS011;30068;50.986;4.564;2023-01-09T09:27:08;3.80;;;0.60;;
44348;SDS011;30068;50.986;4.564;2023-01-09T09:29:33;2.42;;;0.43;;
44348;SDS011;30068;50.986;4.564;2023-01-09T09:31:59;4.00;;;0.50;;
44348;SDS011;30068;50.986;4.564;2023-01-09T09:34:24;3.10;;;0.70;;
44348;SDS011;30068;50.986;4.564;2023-01-09T09:36:49;2.45;;;0.60;;
44348;SDS011;30068;50.986;4.564;2023-01-09T09:39:15;2.55;;;0.85;;
44348;SDS011;30068;50.986;4.564;2023-01-09T09:41:45;3.70;;;0.60;;
44348;SDS011;30068;50.986;4.564;2023-01-09T09:45:02;2.90;;;0.60;;
44348;SDS011;30068;50.986;4.564;2023-01-09T09:55:40;2.80;;;0.57;;
44348;SDS011;30068;50.986;4.564;2023-01-09T09:58:10;1.70;;;0.40;;
44348;SDS011;30068;50.986;4.564;2023-01-09T10:00:42;2.13;;;0.50;;
44348;SDS011;30068;50.986;4.564;2023-01-09T10:03:10;2.75;;;0.63;;
44348;SDS011;30068;50.986;4.564;2023-01-09T10:05:47;1.10;;;0.30;;
44348;SDS011;30068;50.986;4.564;2023-01-09T10:11:00;5.10;;;0.77;;
44348;SDS011;30068;50.986;4.564;2023-01-09T10:13:26;2.13;;;0.68;;
44348;SDS011;30068;50.986;4.564;2023-01-09T10:26:51;3.47;;;0.73;;
44348;SDS011;30068;50.986;4.564;2023-01-09T10:37:29;3.00;;;0.63;;
44348;SDS011;30068;50.986;4.564;2023-01-09T10:42:59;2.25;;;0.40;;
44348;SDS011;30068;50.986;4.564;2023-01-09T10:45:31;1.55;;;0.40;;
44348;SDS011;30068;50.986;4.564;2023-01-09T10:48:00;2.63;;;0.60;;
44348;SDS011;30068;50.986;4.564;2023-01-09T10:50:31;7.63;;;0.70;;
44348;SDS011;30068;50.986;4.564;2023-01-09T10:52:59;2.63;;;0.40;;
44348;SDS011;30068;50.986;4.564;2023-01-09T10:55:39;4.07;;;0.63;;
44348;SDS011;30068;50.986;4.564;2023-01-09T10:58:16;4.47;;;0.60;;
44348;SDS011;30068;50.986;4.564;2023-01-09T11:00:42;3.42;;;0.60;;
44348;SDS011;30068;50.986;4.564;2023-01-09T11:03:12;1.83;;;0.50;;
44348;SDS011;30068;50.986;4.564;2023-01-09T11:05:52;4.82;;;0.70;;
44348;SDS011;30068;50.986;4.564;2023-01-09T11:08:21;5.05;;;1.00;;
44348;SDS011;30068;50.986;4.564;2023-01-09T11:11:00;2.60;;;0.70;;
44348;SDS011;30068;50.986;4.564;2023-01-09T11:13:28;3.80;;;0.60;;
44348;SDS011;30068;50.986;4.564;2023-01-09T11:16:00;1.95;;;0.52;;
44348;SDS011;30068;50.986;4.564;2023-01-09T11:18:25;2.28;;;0.60;;
44348;SDS011;30068;50.986;4.564;2023-01-09T11:20:51;4.28;;;0.98;;
44348;SDS011;30068;50.986;4.564;2023-01-09T11:23:22;2.25;;;0.50;;
44348;SDS011;30068;50.986;4.564;2023-01-09T11:25:51;2.08;;;0.50;;
44348;SDS011;30068;50.986;4.564;2023-01-09T11:28:18;1.65;;;0.40;;
44348;SDS011;30068;50.986;4.564;2023-01-09T11:30:56;2.33;;;0.60;;
44348;SDS011;30068;50.986;4.564;2023-01-09T11:33:27;3.33;;;0.60;;
44348;SDS011;30068;50.986;4.564;2023-01-09T11:38:43;2.22;;;0.50;;
44348;SDS011;30068;50.986;4.564;2023-01-09T11:41:12;2.60;;;0.40;;
44348;SDS011;30068;50.986;4.564;2023-01-09T11:43:42;1.65;;;0.40;;
44348;SDS011;30068;50.986;4.564;2023-01-09T11:46:28;2.05;;;0.40;;
44348;SDS011;30068;50.986;4.564;2023-01-09T11:48:58;2.78;;;0.60;;
44348;SDS011;30068;50.986;4.564;2023-01-09T11:51:27;2.47;;;0.63;;
44348;SDS011;30068;50.986;4.564;2023-01-09T11:56:40;1.90;;;0.60;;
44348;SDS011;30068;50.986;4.564;2023-01-09T11:59:10;2.45;;;0.50;;
44348;SDS011;30068;50.986;4.564;2023-01-09T12:06:49;2.53;;;0.50;;
44348;SDS011;30068;50.986;4.564;2023-01-09T12:34:58;4.75;;;0.80;;
44348;SDS011;30068;50.986;4.564;2023-01-09T12:45:52;3.40;;;0.88;;
44348;SDS011;30068;50.986;4.564;2023-01-09T12:56:44;4.18;;;0.80;;
44348;SDS011;30068;50.986;4.564;2023-01-09T12:59:31;2.55;;;0.70;;
44348;SDS011;30068;50.986;4.564;2023-01-09T13:03:05;4.20;;;0.90;;
44348;SDS011;30068;50.986;4.564;2023-01-09T13:05:19;3.95;;;0.70;;
44348;SDS011;30068;50.986;4.564;2023-01-09T13:07:55;5.50;;;1.05;;
44348;SDS011;30068;50.986;4.564;2023-01-09T13:12:58;4.32;;;0.88;;
44348;SDS011;30068;50.986;4.564;2023-01-09T13:15:38;4.68;;;1.00;;
44348;SDS011;30068;50.986;4.564;2023-01-09T13:20:54;3.13;;;0.70;;
44348;SDS011;30068;50.986;4.564;2023-01-09T13:26:14;3.95;;;0.90;;
44348;SDS011;30068;50.986;4.564;2023-01-09T13:33:52;2.90;;;0.77;;
44348;SDS011;30068;50.986;4.564;2023-01-09T13:36:28;5.07;;;0.82;;
44348;SDS011;30068;50.986;4.564;2023-01-09T13:38:57;3.08;;;0.90;;
44348;SDS011;30068;50.986;4.564;2023-01-09T13:41:24;6.07;;;1.00;;
44348;SDS011;30068;50.986;4.564;2023-01-09T13:46:51;3.70;;;0.80;;
44348;SDS011;30068;50.986;4.564;2023-01-09T13:59:47;4.38;;;1.00;;
44348;SDS011;30068;50.986;4.564;2023-01-09T14:05:00;4.63;;;1.35;;
44348;SDS011;30068;50.986;4.564;2023-01-09T14:07:27;3.70;;;1.02;;
44348;SDS011;30068;50.986;4.564;2023-01-09T14:09:58;6.00;;;1.52;;
44348;SDS011;30068;50.986;4.564;2023-01-09T14:12:26;5.15;;;1.23;;
44348;SDS011;30068;50.986;4.564;2023-01-09T14:14:55;3.08;;;1.02;;
44348;SDS011;30068;50.986;4.564;2023-01-09T14:17:25;3.60;;;0.90;;
44348;SDS011;30068;50.986;4.564;2023-01-09T14:19:55;4.43;;;1.13;;
44348;SDS011;30068;50.986;4.564;2023-01-09T14:22:23;5.03;;;1.00;;
44348;SDS011;30068;50.986;4.564;2023-01-09T14:24:50;6.63;;;1.30;;
44348;SDS011;30068;50.986;4.564;2023-01-09T14:30:34;3.97;;;1.00;;
44348;SDS011;30068;50.986;4.564;2023-01-09T14:33:25;3.53;;;0.88;;
44348;SDS011;30068;50.986;4.564;2023-01-09T14:36:14;3.83;;;1.00;;
44348;SDS011;30068;50.986;4.564;2023-01-09T14:38:50;3.90;;;1.00;;
44348;SDS011;30068;50.986;4.564;2023-01-09T14:41:19;6.32;;;0.90;;
44348;SDS011;30068;50.986;4.564;2023-01-09T14:46:54;3.83;;;0.80;;
44348;SDS011;30068;50.986;4.564;2023-01-09T14:52:23;4.78;;;0.90;;
44348;SDS011;30068;50.986;4.564;2023-01-09T14:54:55;4.93;;;1.10;;
44348;SDS011;30068;50.986;4.564;2023-01-09T14:59:58;3.72;;;0.90;;
44348;SDS011;30068;50.986;4.564;2023-01-09T15:02:30;4.85;;;1.08;;
44348;SDS011;30068;50.986;4.564;2023-01-09T15:05:02;3.35;;;0.80;;
44348;SDS011;30068;50.986;4.564;2023-01-09T15:07:33;5.20;;;0.95;;
44348;SDS011;30068;50.986;4.564;2023-01-09T15:10:10;4.10;;;0.85;;
44348;SDS011;30068;50.986;4.564;2023-01-09T15:12:40;3.03;;;0.80;;
44348;SDS011;30068;50.986;4.564;2023-01-09T15:15:09;3.05;;;0.80;;
44348;SDS011;30068;50.986;4.564;2023-01-09T15:17:38;4.13;;;1.10;;
44348;SDS011;30068;50.986;4.564;2023-01-09T15:20:07;5.72;;;0.80;;
44348;SDS011;30068;50.986;4.564;2023-01-09T15:22:47;6.03;;;1.25;;
44348;SDS011;30068;50.986;4.564;2023-01-09T15:27:51;3.95;;;0.93;;
44348;SDS011;30068;50.986;4.564;2023-01-09T15:30:31;3.72;;;0.90;;
44348;SDS011;30068;50.986;4.564;2023-01-09T15:33:13;3.38;;;1.00;;
44348;SDS011;30068;50.986;4.564;2023-01-09T15:35:44;4.68;;;0.90;;
44348;SDS011;30068;50.986;4.564;2023-01-09T15:38:13;2.65;;;0.70;;
44348;SDS011;30068;50.986;4.564;2023-01-09T15:40:42;4.75;;;1.20;;
44348;SDS011;30068;50.986;4.564;2023-01-09T15:43:11;3.55;;;0.80;;
44348;SDS011;30068;50.986;4.564;2023-01-09T15:45:42;4.10;;;0.80;;
44348;SDS011;30068;50.986;4.564;2023-01-09T15:48:26;3.80;;;1.13;;
44348;SDS011;30068;50.986;4.564;2023-01-09T15:51:04;2.97;;;0.82;;
44348;SDS011;30068;50.986;4.564;2023-01-09T15:53:30;2.30;;;0.65;;
44348;SDS011;30068;50.986;4.564;2023-01-09T15:58:40;4.15;;;0.98;;
44348;SDS011;30068;50.986;4.564;2023-01-09T16:04:16;3.50;;;0.82;;
44348;SDS011;30068;50.986;4.564;2023-01-09T16:06:48;3.85;;;0.77;;
44348;SDS011;30068;50.986;4.564;2023-01-09T16:12:02;3.95;;;0.60;;
44348;SDS011;30068;50.986;4.564;2023-01-09T16:14:39;5.65;;;1.00;;
44348;SDS011;30068;50.986;4.564;2023-01-09T16:17:14;3.08;;;0.90;;
44348;SDS011;30068;50.986;4.564;2023-01-09T16:22:35;2.58;;;0.68;;
44348;SDS011;30068;50.986;4.564;2023-01-09T16:25:02;4.07;;;0.95;;
44348;SDS011;30068;50.986;4.564;2023-01-09T16:31:01;3.33;;;0.90;;
44348;SDS011;30068;50.986;4.564;2023-01-09T16:33:32;4.18;;;0.82;;
44348;SDS011;30068;50.986;4.564;2023-01-09T16:35:58;2.97;;;0.70;;
44348;SDS011;30068;50.986;4.564;2023-01-09T16:38:25;2.42;;;0.80;;
44348;SDS011;30068;50.986;4.564;2023-01-09T16:43:43;3.72;;;1.08;;
44348;SDS011;30068;50.986;4.564;2023-01-09T16:46:09;2.53;;;0.63;;
44348;SDS011;30068;50.986;4.564;2023-01-09T16:48:35;3.65;;;0.90;;
44348;SDS011;30068;50.986;4.564;2023-01-09T16:51:03;3.67;;;0.85;;
44348;SDS011;30068;50.986;4.564;2023-01-09T16:53:29;3.05;;;0.70;;
44348;SDS011;30068;50.986;4.564;2023-01-09T16:55:56;2.28;;;0.80;;
44348;SDS011;30068;50.986;4.564;2023-01-09T16:58:31;4.45;;;1.00;;
44348;SDS011;30068;50.986;4.564;2023-01-09T17:00:59;4.10;;;0.93;;
44348;SDS011;30068;50.986;4.564;2023-01-09T17:03:25;4.85;;;0.90;;
44348;SDS011;30068;50.986;4.564;2023-01-09T17:05:51;3.47;;;0.90;;
44348;SDS011;30068;50.986;4.564;2023-01-09T17:08:23;4.70;;;0.82;;
44348;SDS011;30068;50.986;4.564;2023-01-09T17:10:52;4.43;;;0.98;;
44348;SDS011;30068;50.986;4.564;2023-01-09T17:13:19;3.22;;;0.93;;
44348;SDS011;30068;50.986;4.564;2023-01-09T17:15:45;2.65;;;0.70;;
44348;SDS011;30068;50.986;4.564;2023-01-09T17:18:14;2.60;;;0.70;;
44348;SDS011;30068;50.986;4.564;2023-01-09T17:20:42;4.22;;;0.70;;
44348;SDS011;30068;50.986;4.564;2023-01-09T17:23:08;2.83;;;0.70;;
44348;SDS011;30068;50.986;4.564;2023-01-09T17:25:34;3.80;;;0.80;;
44348;SDS011;30068;50.986;4.564;2023-01-09T17:28:18;3.55;;;0.90;;
44348;SDS011;30068;50.986;4.564;2023-01-09T17:30:56;3.28;;;0.80;;
44348;SDS011;30068;50.986;4.564;2023-01-09T17:33:22;3.95;;;0.90;;
44348;SDS011;30068;50.986;4.564;2023-01-09T17:35:47;3.08;;;0.65;;
44348;SDS011;30068;50.986;4.564;2023-01-09T17:38:13;3.75;;;0.80;;
44348;SDS011;30068;50.986;4.564;2023-01-09T17:40:39;3.83;;;0.75;;
44348;SDS011;30068;50.986;4.564;2023-01-09T17:43:05;2.15;;;0.60;;
44348;SDS011;30068;50.986;4.564;2023-01-09T17:45:30;2.53;;;0.60;;
44348;SDS011;30068;50.986;4.564;2023-01-09T17:47:56;4.53;;;0.70;;